Time;durP1;ratioP1;P1;durP2;ratioP2;P2;SDS_P1;SDS_P2;PMS_P1;PMS_P2;Temp;Humidity;BMP_temperature;BMP_pressure;BME280_temperature;BME280_humidity;BME280_pressure;Samples;Min_cycle;Max_cycle;Signal;HPM_P1;HPM_P2
2023/09/29 00:00:06;;;;;;;5.20;2.75;;;;;;;14.39;97.05;93551.03;5110233;28;20051;-74
2023/09/29 00:02:33;;;;;;;4.35;2.88;;;;;;;14.31;97.48;93544.41;5126686;28;20071;-74
2023/09/29 00:05:01;;;;;;;5.88;3.22;;;;;;;14.26;97.76;93539.13;5126758;28;20047;-75
2023/09/29 00:07:27;;;;;;;5.32;2.92;;;;;;;14.33;97.60;93542.38;5112507;27;20048;-74
2023/09/29 00:09:54;;;;;;;5.95;3.15;;;;;;;14.33;97.80;93547.56;5111785;27;20073;-74
2023/09/29 00:12:21;;;;;;;6.30;2.85;;;;;;;14.32;97.60;93550.34;5111805;27;20111;-74
2023/09/29 00:14:49;;;;;;;5.63;3.00;;;;;;;14.30;97.71;93548.00;5112776;27;20093;-74
2023/09/29 00:17:16;;;;;;;6.03;3.35;;;;;;;14.28;98.03;93548.25;5111485;27;20051;-74
2023/09/29 00:19:44;;;;;;;9.55;3.05;;;;;;;14.29;97.87;93549.00;5115177;27;20483;-74
2023/09/29 00:22:11;;;;;;;6.53;3.10;;;;;;;14.30;98.28;93543.63;5111489;27;20122;-75
2023/09/29 00:24:38;;;;;;;7.38;3.40;;;;;;;14.27;98.32;93538.88;5113182;27;20058;-75
2023/09/29 00:27:04;;;;;;;6.70;3.00;;;;;;;14.26;98.38;93547.66;5110891;27;20054;-74
2023/09/29 00:29:32;;;;;;;6.60;3.60;;;;;;;14.22;98.21;93541.38;5114879;27;20054;-74
2023/09/29 00:32:01;;;;;;;5.43;3.20;;;;;;;14.21;98.75;93544.19;5115332;27;20507;-74
2023/09/29 00:34:28;;;;;;;4.93;3.17;;;;;;;14.15;98.66;93544.06;5112944;27;20048;-74
2023/09/29 00:36:55;;;;;;;7.68;3.75;;;;;;;14.16;98.78;93555.16;5111081;27;20183;-75
2023/09/29 00:39:22;;;;;;;7.70;3.13;;;;;;;13.94;98.73;93509.25;5111103;27;20044;-74
2023/09/29 00:41:49;;;;;;;8.57;3.13;;;;;;;14.07;99.31;93530.69;5115512;27;20410;-74
2023/09/29 00:44:16;;;;;;;5.07;3.25;;;;;;;13.87;99.23;93505.94;5110876;27;20101;-74
2023/09/29 00:46:43;;;;;;;7.05;3.67;;;;;;;14.00;99.74;93533.38;5110370;27;20404;-74
2023/09/29 00:49:14;;;;;;;5.05;3.20;;;;;;;14.11;98.84;93545.50;5112596;27;20101;-74
2023/09/29 00:51:41;;;;;;;5.07;3.38;;;;;;;14.03;99.93;93536.28;5110976;27;20056;-74
2023/09/29 00:54:09;;;;;;;8.00;3.67;;;;;;;13.94;100.00;93531.69;5110561;27;20051;-74
2023/09/29 00:56:37;;;;;;;6.55;3.22;;;;;;;13.93;100.00;93538.63;5112779;27;20050;-76
2023/09/29 00:59:05;;;;;;;6.72;3.35;;;;;;;13.87;100.00;93530.00;5113274;27;20062;-76
2023/09/29 01:01:33;;;;;;;5.07;3.10;;;;;;;13.83;100.00;93540.97;5109748;28;20043;-76
2023/09/29 01:04:00;;;;;;;7.28;3.22;;;;;;;13.77;100.00;93537.47;5110876;27;20051;-76
2023/09/29 01:06:29;;;;;;;7.22;3.38;;;;;;;13.74;100.00;93541.28;5112032;27;20051;-76
2023/09/29 01:08:57;;;;;;;7.50;3.83;;;;;;;13.70;100.00;93541.97;5110372;27;20083;-75
2023/09/29 01:11:24;;;;;;;6.90;3.28;;;;;;;13.67;100.00;93542.41;5114122;27;20051;-75
2023/09/29 01:13:51;;;;;;;7.47;3.50;;;;;;;13.49;100.00;93520.81;5110268;27;20098;-75
2023/09/29 01:16:20;;;;;;;7.18;4.07;;;;;;;13.57;100.00;93546.28;5110449;27;20100;-76
2023/09/29 01:18:47;;;;;;;5.53;3.22;;;;;;;13.54;100.00;93531.25;5108966;27;20043;-76
2023/09/29 01:21:14;;;;;;;5.10;3.58;;;;;;;13.57;100.00;93532.59;5112451;27;20494;-75
2023/09/29 01:23:44;;;;;;;7.30;3.17;;;;;;;13.51;100.00;93533.50;5109904;27;20051;-75
2023/09/29 01:26:11;;;;;;;5.97;3.28;;;;;;;13.46;100.00;93527.19;5109694;27;20415;-75
2023/09/29 01:28:38;;;;;;;7.80;3.40;;;;;;;13.26;100.00;93501.63;5120517;27;20055;-75
2023/09/29 01:31:06;;;;;;;5.68;3.60;;;;;;;13.46;100.00;93531.50;5109685;27;20078;-75
2023/09/29 01:33:33;;;;;;;6.45;3.30;;;;;;;13.43;100.00;93537.13;5109939;27;20051;-75
2023/09/29 01:36:00;;;;;;;8.73;4.13;;;;;;;13.40;100.00;93535.78;5110689;27;20055;-75
2023/09/29 01:38:27;;;;;;;6.68;3.10;;;;;;;13.31;100.00;93522.41;5109255;27;20043;-76
2023/09/29 01:40:57;;;;;;;6.55;3.95;;;;;;;13.22;100.00;93521.13;5112164;27;20058;-76
2023/09/29 01:43:24;;;;;;;6.07;3.20;;;;;;;13.38;100.00;93535.19;5109392;27;20935;-76
2023/09/29 01:45:51;;;;;;;5.25;3.42;;;;;;;13.38;100.00;93529.25;5109573;27;20058;-76
2023/09/29 01:48:17;;;;;;;7.03;3.33;;;;;;;13.31;100.00;93534.50;5112143;27;20051;-75
2023/09/29 01:50:45;;;;;;;6.75;3.42;;;;;;;13.26;100.00;93527.41;5109297;28;20093;-75
2023/09/29 01:53:12;;;;;;;5.00;3.58;;;;;;;13.18;100.00;93533.66;5111874;27;20404;-75
2023/09/29 01:55:39;;;;;;;6.95;3.45;;;;;;;13.19;100.00;93537.03;5109352;27;20071;-75
2023/09/29 01:58:08;;;;;;;7.50;4.07;;;;;;;13.14;100.00;93535.09;5108732;27;20043;-75
2023/09/29 02:00:35;;;;;;;6.93;3.47;;;;;;;13.10;100.00;93531.38;5109710;27;20499;-75
2023/09/29 02:03:06;;;;;;;8.05;3.85;;;;;;;13.08;100.00;93529.03;5113269;27;20396;-75
2023/09/29 02:05:32;;;;;;;10.85;3.83;;;;;;;13.06;100.00;93536.19;5124515;27;20520;-75
2023/09/29 02:08:02;;;;;;;6.68;3.33;;;;;;;12.92;100.00;93519.31;5108084;27;20047;-75
2023/09/29 02:10:29;;;;;;;6.38;3.45;;;;;;;12.88;100.00;93523.31;5109247;27;20923;-75
2023/09/29 02:12:57;;;;;;;5.65;3.45;;;;;;;12.96;100.00;93543.63;5111295;27;20051;-75
2023/09/29 02:15:26;;;;;;;5.90;3.47;;;;;;;12.95;100.00;93544.63;5109116;27;20052;-76
2023/09/29 02:17:53;;;;;;;6.38;3.47;;;;;;;12.79;100.00;93525.38;5111179;27;20043;-76
2023/09/29 02:20:28;;;;;;;7.57;3.30;;;;;;;12.75;100.00;93531.97;5108654;27;20050;-76
2023/09/29 02:22:56;;;;;;;6.40;3.58;;;;;;;12.81;100.00;93539.63;5110961;27;20100;-76
2023/09/29 02:25:25;;;;;;;8.30;4.13;;;;;;;12.77;100.00;93538.50;5108477;27;20051;-76
2023/09/29 02:27:54;;;;;;;6.20;3.45;;;;;;;12.68;100.00;93525.09;5108925;27;20055;-76
2023/09/29 02:30:21;;;;;;;7.30;3.88;;;;;;;12.72;100.00;93535.00;5108795;27;20048;-76
2023/09/29 02:32:52;;;;;;;5.55;3.08;;;;;;;12.67;100.00;93530.47;5108624;27;20044;-76
2023/09/29 02:35:20;;;;;;;7.28;4.00;;;;;;;12.56;100.00;93521.66;5110820;27;20055;-76
2023/09/29 02:37:48;;;;;;;8.10;3.70;;;;;;;12.63;100.00;93527.53;5108673;27;20058;-76
2023/09/29 02:40:15;;;;;;;8.18;4.03;;;;;;;12.70;100.00;93532.63;5108631;27;20051;-75
2023/09/29 02:42:42;;;;;;;7.03;3.92;;;;;;;12.72;100.00;93535.75;5109035;27;20043;-76
2023/09/29 02:45:10;;;;;;;7.18;3.60;;;;;;;12.73;100.00;93531.41;5108331;27;20496;-76
2023/09/29 02:47:39;;;;;;;8.30;4.28;;;;;;;12.75;100.00;93540.50;5108458;27;20412;-76
2023/09/29 02:50:09;;;;;;;14.52;4.53;;;;;;;12.76;100.00;93524.03;5112747;27;20055;-76
2023/09/29 02:52:36;;;;;;;5.45;3.20;;;;;;;12.77;100.00;93538.50;5108618;27;20048;-76
2023/09/29 02:55:05;;;;;;;5.88;3.38;;;;;;;12.77;100.00;93543.63;5107114;28;20141;-76
2023/09/29 02:57:32;;;;;;;8.05;3.80;;;;;;;12.78;100.00;93539.28;5110712;27;20043;-75
2023/09/29 02:59:58;;;;;;;8.30;3.70;;;;;;;12.83;100.00;93547.94;5110694;27;20522;-76
2023/09/29 03:02:25;;;;;;;8.00;4.15;;;;;;;12.80;100.00;93550.16;5127221;27;20054;-76
2023/09/29 03:04:52;;;;;;;7.60;3.60;;;;;;;12.86;100.00;93548.53;5122631;27;20047;-75
2023/09/29 03:07:20;;;;;;;8.27;3.60;;;;;;;12.85;100.00;93544.34;5108470;28;20055;-77
2023/09/29 03:09:47;;;;;;;7.30;3.65;;;;;;;12.82;100.00;93550.72;5112374;27;20059;-76
2023/09/29 03:12:16;;;;;;;5.35;3.28;;;;;;;12.86;100.00;93546.72;5108450;28;20093;-75
2023/09/29 03:14:43;;;;;;;6.38;3.38;;;;;;;12.91;100.00;93549.44;5107881;28;20089;-76
2023/09/29 03:17:10;;;;;;;9.63;3.83;;;;;;;12.72;100.00;93520.28;5108488;28;20081;-75
2023/09/29 03:19:37;;;;;;;6.88;3.63;;;;;;;12.94;100.00;93558.53;5112174;28;20051;-75
2023/09/29 03:22:04;;;;;;;9.30;3.50;;;;;;;12.93;100.00;93546.66;5108178;28;20411;-75
2023/09/29 03:24:34;;;;;;;7.45;3.78;;;;;;;13.00;100.00;93552.50;5109567;28;20048;-75
2023/09/29 03:27:01;;;;;;;7.10;4.00;;;;;;;12.96;100.00;93554.75;5107941;28;20056;-75
2023/09/29 03:29:27;;;;;;;7.30;3.25;;;;;;;13.00;100.00;93554.31;5108352;28;20051;-75
2023/09/29 03:31:54;;;;;;;6.80;3.85;;;;;;;13.00;100.00;93555.09;5108779;28;20506;-75
2023/09/29 03:34:23;;;;;;;9.90;3.75;;;;;;;12.99;100.00;93552.72;5108389;28;20805;-75
2023/09/29 03:36:51;;;;;;;7.30;3.92;;;;;;;13.13;100.00;93558.53;5110173;28;20047;-75
2023/09/29 03:39:18;;;;;;;6.22;3.65;;;;;;;13.06;100.00;93556.81;5110143;28;20051;-75
2023/09/29 03:41:47;;;;;;;6.78;3.50;;;;;;;13.07;100.00;93558.41;5111306;27;20045;-75
2023/09/29 03:44:14;;;;;;;6.25;3.92;;;;;;;13.07;100.00;93557.59;5111724;27;20356;-74
2023/09/29 03:46:40;;;;;;;6.97;3.85;;;;;;;13.09;100.00;93553.00;5111674;27;20044;-75
2023/09/29 03:49:10;;;;;;;7.30;3.53;;;;;;;13.04;100.00;93555.44;5111848;27;20066;-76
2023/09/29 03:51:38;;;;;;;7.25;3.58;;;;;;;13.00;100.00;93546.59;5113868;27;20396;-76
2023/09/29 03:54:07;;;;;;;8.55;3.80;;;;;;;12.98;100.00;93556.31;5113445;27;20058;-76
2023/09/29 03:56:34;;;;;;;9.30;3.75;;;;;;;12.91;100.00;93546.09;5111489;27;20583;-75
2023/09/29 03:59:03;;;;;;;10.73;4.40;;;;;;;12.88;100.00;93552.47;5119151;27;20495;-75
2023/09/29 04:01:29;;;;;;;6.70;4.20;;;;;;;12.64;100.00;93556.69;5115163;27;20131;-75
2023/09/29 04:03:56;;;;;;;8.10;4.47;;;;;;;12.48;100.00;93530.47;5121586;27;20150;-75
2023/09/29 04:06:24;;;;;;;7.63;4.30;;;;;;;12.60;100.00;93556.31;5111400;27;20055;-75
2023/09/29 04:08:51;;;;;;;8.93;4.43;;;;;;;12.51;100.00;93547.28;5113317;27;20043;-75
2023/09/29 04:11:18;;;;;;;6.20;4.05;;;;;;;12.55;100.00;93551.78;5111141;27;20048;-76
2023/09/29 04:13:45;;;;;;;9.13;4.35;;;;;;;12.54;100.00;93557.16;5113053;27;20051;-76
2023/09/29 04:16:14;;;;;;;6.10;3.72;;;;;;;12.58;100.00;93545.41;5111291;27;20055;-76
2023/09/29 04:18:41;;;;;;;8.80;4.95;;;;;;;12.38;100.00;93556.72;5113802;27;20073;-75
2023/09/29 04:21:12;;;;;;;12.38;4.47;;;;;;;12.29;100.00;93556.19;5111834;27;20086;-76
2023/09/29 04:23:39;;;;;;;10.98;4.50;;;;;;;12.12;100.00;93531.94;5114865;27;20088;-76
2023/09/29 04:26:15;;;;;;;6.95;4.18;;;;;;;12.13;100.00;93544.63;5129761;27;20047;-76
2023/09/29 04:28:42;;;;;;;12.38;4.63;;;;;;;12.10;100.00;93555.34;5124740;27;20765;-75
2023/09/29 04:31:10;;;;;;;13.77;5.05;;;;;;;12.10;100.00;93546.84;5110753;27;20039;-76
2023/09/29 04:33:39;;;;;;;9.30;5.32;;;;;;;12.09;100.00;93561.47;5118239;27;20514;-75
2023/09/29 04:36:06;;;;;;;8.15;4.57;;;;;;;12.15;100.00;93552.16;5126149;27;20051;-74
2023/09/29 04:38:33;;;;;;;11.80;5.38;;;;;;;12.16;100.00;93553.72;5115321;27;20051;-74
2023/09/29 04:41:00;;;;;;;11.38;5.03;;;;;;;12.19;100.00;93555.88;5110993;27;20148;-75
2023/09/29 04:43:28;;;;;;;10.90;4.32;;;;;;;12.31;100.00;93562.91;5115313;27;20059;-74
2023/09/29 04:45:55;;;;;;;11.93;5.53;;;;;;;12.41;100.00;93568.38;5110685;27;20040;-75
2023/09/29 04:48:22;;;;;;;8.07;4.57;;;;;;;12.48;100.00;93565.72;5114283;27;20047;-75
2023/09/29 04:50:50;;;;;;;10.05;4.93;;;;;;;12.54;100.00;93572.59;5112959;27;20051;-76
2023/09/29 04:53:17;;;;;;;6.97;4.00;;;;;;;12.52;100.00;93572.84;5114744;27;20424;-75
2023/09/29 04:55:44;;;;;;;10.80;4.22;;;;;;;12.60;100.00;93570.97;5112826;27;20051;-76
2023/09/29 04:58:11;;;;;;;10.13;3.80;;;;;;;12.63;100.00;93563.59;5115810;27;20051;-75
2023/09/29 05:00:38;;;;;;;11.05;4.63;;;;;;;12.64;100.00;93565.19;5112348;27;20052;-75
2023/09/29 05:03:05;;;;;;;11.07;4.28;;;;;;;12.80;100.00;93576.75;5112227;27;20139;-75
2023/09/29 05:05:33;;;;;;;9.80;4.32;;;;;;;12.89;100.00;93574.66;5111238;27;20051;-75
2023/09/29 05:08:01;;;;;;;9.35;4.40;;;;;;;12.94;100.00;93579.16;5111722;27;20061;-75
2023/09/29 05:10:28;;;;;;;11.07;5.05;;;;;;;12.98;100.00;93566.63;5110869;27;20491;-75
2023/09/29 05:12:55;;;;;;;8.68;4.05;;;;;;;13.03;100.00;93566.78;5114056;27;20048;-75
2023/09/29 05:15:22;;;;;;;11.70;4.65;;;;;;;13.10;100.00;93577.78;5113838;27;20047;-75
2023/09/29 05:17:49;;;;;;;10.68;4.40;;;;;;;13.08;100.00;93577.22;5110391;27;20477;-75
2023/09/29 05:20:17;;;;;;;13.02;5.07;;;;;;;13.14;100.00;93578.94;5113751;27;20152;-75
2023/09/29 05:22:44;;;;;;;10.25;4.80;;;;;;;13.14;100.00;93573.78;5109546;27;20051;-75
2023/09/29 05:25:12;;;;;;;10.55;4.65;;;;;;;13.15;100.00;93570.19;5109493;28;20047;-76
2023/09/29 05:27:39;;;;;;;14.30;4.72;;;;;;;13.21;100.00;93578.88;5114067;27;20043;-75
2023/09/29 05:30:07;;;;;;;11.57;4.38;;;;;;;13.17;100.00;93578.53;5111478;27;20048;-75
2023/09/29 05:32:34;;;;;;;11.00;4.07;;;;;;;13.30;100.00;93584.53;5114977;27;20058;-75
2023/09/29 05:35:01;;;;;;;11.40;3.80;;;;;;;13.35;100.00;93582.09;5120915;27;20079;-75
2023/09/29 05:37:30;;;;;;;20.17;8.55;;;;;;;13.33;100.00;93581.53;5123981;27;20058;-75
2023/09/29 05:40:02;;;;;;;47.92;21.48;;;;;;;13.32;100.00;93578.16;5109411;28;20059;-75
2023/09/29 05:42:30;;;;;;;41.63;19.77;;;;;;;13.38;100.00;93580.88;5111703;27;20044;-75
2023/09/29 05:44:57;;;;;;;22.15;9.52;;;;;;;13.42;100.00;93579.44;5109624;27;20051;-75
2023/09/29 05:47:24;;;;;;;31.17;12.88;;;;;;;13.39;100.00;93579.84;5109232;27;20548;-75
2023/09/29 05:49:51;;;;;;;14.05;7.07;;;;;;;13.35;100.00;93584.66;5111282;27;20047;-75
2023/09/29 05:52:18;;;;;;;15.85;7.32;;;;;;;13.36;100.00;93575.91;5109627;27;20393;-75
2023/09/29 05:54:45;;;;;;;15.57;7.63;;;;;;;13.43;100.00;93581.00;5109008;27;20047;-75
2023/09/29 05:57:11;;;;;;;13.25;7.90;;;;;;;13.43;100.00;93581.78;5115317;27;20044;-75
2023/09/29 05:59:40;;;;;;;10.10;5.70;;;;;;;13.55;100.00;93581.06;5109384;27;20048;-74
2023/09/29 06:02:08;;;;;;;13.10;5.78;;;;;;;13.69;100.00;93581.66;5109286;27;20044;-75
2023/09/29 06:04:35;;;;;;;14.88;7.15;;;;;;;13.84;100.00;93578.72;5112817;27;20123;-76
2023/09/29 06:07:02;;;;;;;13.25;6.15;;;;;;;13.78;100.00;93564.88;5109485;27;20051;-76
2023/09/29 06:09:30;;;;;;;13.55;7.97;;;;;;;14.07;100.00;93587.53;5123125;27;20081;-76
2023/09/29 06:11:57;;;;;;;31.30;13.18;;;;;;;14.13;100.00;93587.41;5110988;27;20055;-76
2023/09/29 06:14:24;;;;;;;16.95;7.10;;;;;;;14.26;100.00;93589.00;5108791;27;20058;-76
2023/09/29 06:16:52;;;;;;;21.27;9.90;;;;;;;14.31;100.00;93580.59;5108903;27;20446;-76
2023/09/29 06:19:19;;;;;;;20.80;9.80;;;;;;;14.57;100.00;93591.50;5110772;27;20051;-76
2023/09/29 06:21:46;;;;;;;19.40;8.20;;;;;;;14.69;99.28;93587.09;5111950;27;20843;-76
2023/09/29 06:24:13;;;;;;;18.73;8.55;;;;;;;14.85;98.91;93594.44;5113518;27;20044;-76
2023/09/29 06:26:40;;;;;;;13.73;6.82;;;;;;;14.88;98.38;93592.19;5119137;27;20837;-76
2023/09/29 06:29:07;;;;;;;14.82;7.05;;;;;;;15.01;97.01;93591.19;5114476;27;20043;-76
2023/09/29 06:31:33;;;;;;;21.00;7.60;;;;;;;15.21;95.65;93593.38;5110122;27;20047;-75
2023/09/29 06:34:02;;;;;;;17.25;6.35;;;;;;;15.26;92.20;93578.94;5109719;27;20048;-75
2023/09/29 06:36:29;;;;;;;19.83;6.40;;;;;;;15.40;91.11;93582.84;5109236;27;20059;-75
2023/09/29 06:38:55;;;;;;;19.17;5.80;;;;;;;15.65;89.94;93604.28;5109220;27;20089;-75
2023/09/29 06:41:23;;;;;;;24.85;6.53;;;;;;;15.60;87.80;93584.25;5110906;27;20058;-75
2023/09/29 06:43:50;;;;;;;21.17;5.20;;;;;;;15.81;87.72;93595.75;5114069;27;20085;-76
2023/09/29 06:46:17;;;;;;;26.63;7.60;;;;;;;16.02;87.44;93599.50;5111157;27;20086;-76
2023/09/29 06:48:44;;;;;;;14.75;4.68;;;;;;;16.07;83.04;93601.41;5124497;27;20097;-76
2023/09/29 06:51:12;;;;;;;14.02;4.65;;;;;;;16.11;81.67;93599.16;5110077;27;20047;-76
2023/09/29 06:53:39;;;;;;;22.45;4.90;;;;;;;16.12;81.58;93605.91;5109944;27;20058;-76
2023/09/29 06:56:06;;;;;;;20.23;6.07;;;;;;;16.12;82.21;93588.53;5111976;27;20521;-75
2023/09/29 06:58:35;;;;;;;23.83;6.45;;;;;;;16.30;82.22;93597.88;5113184;27;20058;-75
2023/09/29 07:01:02;;;;;;;13.95;5.28;;;;;;;16.37;81.81;93597.75;5114020;27;20047;-75
2023/09/29 07:03:31;;;;;;;16.52;5.18;;;;;;;16.52;81.51;93599.00;5121454;27;20051;-75
2023/09/29 07:05:59;;;;;;;16.02;5.00;;;;;;;16.65;79.73;93588.28;5116864;27;20050;-76
2023/09/29 07:08:27;;;;;;;16.77;4.90;;;;;;;16.87;80.65;93602.31;5112993;27;20055;-76
2023/09/29 07:10:54;;;;;;;19.73;5.20;;;;;;;16.90;79.54;93581.88;5110991;27;20047;-76
2023/09/29 07:13:21;;;;;;;19.42;5.65;;;;;;;17.13;77.45;93605.28;5108959;28;20040;-76
2023/09/29 07:15:48;;;;;;;21.13;5.50;;;;;;;17.27;77.10;93616.09;5108247;28;20088;-76
2023/09/29 07:18:16;;;;;;;16.73;5.43;;;;;;;17.33;76.73;93605.53;5112056;27;20131;-76
2023/09/29 07:20:43;;;;;;;15.45;5.40;;;;;;;17.23;76.42;93584.66;5109204;28;20393;-75
2023/09/29 07:23:10;;;;;;;22.60;5.38;;;;;;;17.43;77.11;93602.28;5110643;28;20411;-76
2023/09/29 07:25:39;;;;;;;20.95;6.05;;;;;;;17.49;77.38;93593.50;5112866;28;20196;-76
2023/09/29 07:28:08;;;;;;;16.65;4.97;;;;;;;17.67;77.47;93607.19;5109380;28;20070;-76
2023/09/29 07:30:35;;;;;;;23.35;6.68;;;;;;;17.82;77.55;93601.38;5113731;28;20506;-76
2023/09/29 07:33:02;;;;;;;14.00;5.40;;;;;;;18.00;76.77;93596.84;5111701;28;20133;-76
2023/09/29 07:35:28;;;;;;;18.95;5.25;;;;;;;18.20;74.57;93601.50;5110306;28;20058;-75
2023/09/29 07:37:55;;;;;;;17.02;5.43;;;;;;;18.47;74.00;93610.28;5109075;28;20052;-76
2023/09/29 07:40:22;;;;;;;15.40;4.85;;;;;;;18.68;73.16;93613.81;5108627;28;20940;-76
2023/09/29 07:42:51;;;;;;;16.52;4.38;;;;;;;18.87;71.73;93603.78;5109619;28;20048;-76
2023/09/29 07:45:18;;;;;;;15.02;4.55;;;;;;;19.08;67.00;93606.53;5108040;28;20416;-77
2023/09/29 07:47:45;;;;;;;14.40;3.85;;;;;;;19.26;61.61;93620.94;5108515;28;20056;-77
2023/09/29 07:50:13;;;;;;;16.42;4.45;;;;;;;19.43;62.29;93620.72;5108319;28;20054;-76
2023/09/29 07:52:40;;;;;;;11.00;3.22;;;;;;;19.65;61.80;93624.19;5111381;28;20050;-76
2023/09/29 07:55:09;;;;;;;11.63;3.63;;;;;;;19.83;59.38;93622.94;5108686;27;20043;-76
2023/09/29 07:57:36;;;;;;;7.32;2.92;;;;;;;19.90;54.79;93632.09;5107752;28;20040;-76
2023/09/29 08:00:08;;;;;;;6.68;2.30;;;;;;;19.97;52.68;93629.25;5107874;28;20044;-76
2023/09/29 08:02:35;;;;;;;6.88;2.22;;;;;;;19.77;50.98;93635.97;5107547;28;20823;-75
2023/09/29 08:05:02;;;;;;;6.57;1.88;;;;;;;19.86;50.93;93630.25;5107608;28;20105;-75
2023/09/29 08:07:29;;;;;;;8.25;2.78;;;;;;;19.79;57.14;93601.03;5107493;28;20052;-75
2023/09/29 08:09:57;;;;;;;11.50;3.92;;;;;;;20.12;60.80;93623.28;5122212;28;20096;-75
2023/09/29 08:12:23;;;;;;;4.90;1.40;;;;;;;19.90;49.44;93628.69;5111735;28;20522;-75
2023/09/29 08:14:51;;;;;;;4.07;1.70;;;;;;;19.81;47.83;93614.59;5107762;28;20077;-75
2023/09/29 08:17:19;;;;;;;5.50;1.92;;;;;;;19.87;49.33;93626.59;5111633;28;20144;-76
2023/09/29 08:19:47;;;;;;;3.65;1.83;;;;;;;19.95;48.48;93623.47;5114299;28;20079;-76
2023/09/29 08:22:13;;;;;;;6.28;1.95;;;;;;;20.11;49.79;93626.16;5107941;28;20058;-75
2023/09/29 08:24:41;;;;;;;7.38;2.38;;;;;;;20.28;47.91;93625.91;5111366;28;20396;-76
2023/09/29 08:27:07;;;;;;;7.82;1.80;;;;;;;20.39;46.69;93630.09;5109066;27;20066;-76
2023/09/29 08:29:34;;;;;;;4.95;1.48;;;;;;;20.54;46.96;93618.88;5111230;27;20050;-75
2023/09/29 08:32:01;;;;;;;7.38;1.90;;;;;;;20.70;45.21;93622.25;5111582;27;20044;-76
2023/09/29 08:34:31;;;;;;;8.90;2.00;;;;;;;21.02;46.26;93627.47;5112162;27;20062;-75
2023/09/29 08:36:58;;;;;;;5.47;1.80;;;;;;;21.26;47.00;93622.44;5111611;27;20475;-75
2023/09/29 08:39:25;;;;;;;4.30;1.35;;;;;;;20.81;43.70;93620.41;5111385;27;20529;-77
2023/09/29 08:41:58;;;;;;;2.97;1.60;;;;;;;20.93;44.83;93629.81;5111894;27;20099;-75
2023/09/29 08:44:28;;;;;;;4.22;1.63;;;;;;;21.00;43.31;93627.72;5118362;27;20524;-76
2023/09/29 08:47:00;;;;;;;14.32;2.35;;;;;;;21.12;43.14;93632.66;5111145;27;20039;-75
2023/09/29 08:49:29;;;;;;;4.45;1.50;;;;;;;21.15;44.34;93618.28;5110929;27;20051;-75
2023/09/29 08:51:58;;;;;;;3.67;1.40;;;;;;;21.18;44.08;93626.38;5113957;27;20045;-76
2023/09/29 08:54:25;;;;;;;4.95;2.08;;;;;;;20.98;43.57;93627.22;5118431;27;20138;-76
2023/09/29 08:56:53;;;;;;;3.92;1.67;;;;;;;21.01;43.28;93631.88;5115322;27;20440;-77
2023/09/29 08:59:20;;;;;;;3.58;1.40;;;;;;;21.02;42.99;93640.50;5111588;27;20067;-76
2023/09/29 09:01:48;;;;;;;4.53;1.77;;;;;;;20.83;42.57;93633.22;5114574;27;20495;-77
2023/09/29 09:04:15;;;;;;;3.53;1.40;;;;;;;20.93;42.03;93638.41;5112836;27;20522;-76
2023/09/29 09:06:44;;;;;;;3.85;2.05;;;;;;;20.93;41.80;93633.19;5112076;27;20047;-78
2023/09/29 09:09:11;;;;;;;4.40;1.63;;;;;;;21.13;43.36;93626.38;5114308;27;20051;-76
2023/09/29 09:11:44;;;;;;;4.50;1.55;;;;;;;21.13;41.11;93631.59;5119779;27;20146;-77
2023/09/29 09:14:10;;;;;;;3.38;1.50;;;;;;;21.27;42.14;93633.66;5114505;27;20044;-77
2023/09/29 09:16:40;;;;;;;4.18;1.60;;;;;;;21.00;42.10;93627.72;5110801;27;20069;-76
2023/09/29 09:19:11;;;;;;;5.13;1.48;;;;;;;20.63;42.58;93623.56;5109512;28;20134;-76
2023/09/29 09:21:38;;;;;;;6.13;1.50;;;;;;;20.89;43.10;93640.03;5110678;27;20047;-76
2023/09/29 09:24:18;;;;;;;6.25;1.63;;;;;;;20.89;41.91;93639.22;5115393;27;20051;-77
2023/09/29 09:26:46;;;;;;;5.38;1.80;;;;;;;20.46;42.17;93606.34;5109789;27;20043;-76
2023/09/29 09:29:15;;;;;;;4.65;1.45;;;;;;;20.77;42.13;93627.19;5114163;27;20078;-76
2023/09/29 09:31:44;;;;;;;6.88;1.58;;;;;;;20.95;42.51;93633.75;5110585;27;20047;-76
2023/09/29 09:34:12;;;;;;;4.70;1.85;;;;;;;20.89;42.66;93610.50;5112384;27;20112;-76
2023/09/29 09:36:51;;;;;;;5.72;1.95;;;;;;;21.05;42.93;93627.69;5117993;27;20083;-75
2023/09/29 09:39:24;;;;;;;4.72;1.70;;;;;;;20.96;42.20;93632.69;5110370;27;20047;-75
2023/09/29 09:41:56;;;;;;;4.85;2.10;;;;;;;21.05;43.19;93616.47;5111711;27;20490;-75
2023/09/29 09:44:25;;;;;;;4.55;1.90;;;;;;;21.34;41.73;93623.72;5114230;27;20048;-76
2023/09/29 09:46:55;;;;;;;3.53;1.73;;;;;;;21.36;41.00;93624.22;5121770;27;20107;-76
2023/09/29 09:49:29;;;;;;;3.80;1.92;;;;;;;21.31;40.96;93619.00;5113310;27;20059;-76
2023/09/29 09:52:03;;;;;;;6.00;2.45;;;;;;;21.30;40.24;93630.50;5114760;27;20050;-76
2023/09/29 09:54:36;;;;;;;5.95;1.98;;;;;;;21.57;40.75;93618.91;5115463;27;20058;-76
2023/09/29 09:57:08;;;;;;;4.90;2.50;;;;;;;21.69;40.52;93622.00;5110649;27;20055;-76
2023/09/29 09:59:35;;;;;;;5.90;2.53;;;;;;;21.86;40.68;93626.88;5116558;27;20151;-76
2023/09/29 10:02:06;;;;;;;7.38;2.40;;;;;;;21.69;40.40;93611.53;5121440;27;20051;-76
2023/09/29 10:04:36;;;;;;;5.53;2.53;;;;;;;22.03;39.75;93621.31;5108787;27;20054;-75
2023/09/29 10:07:04;;;;;;;4.85;2.28;;;;;;;21.73;39.34;93602.13;5114783;27;20058;-76
2023/09/29 10:09:43;;;;;;;3.72;1.75;;;;;;;21.75;39.81;93625.38;5109594;27;20127;-76
2023/09/29 10:12:22;;;;;;;4.75;2.20;;;;;;;22.00;40.66;93611.38;5112749;27;20163;-76
2023/09/29 10:14:49;;;;;;;8.07;2.63;;;;;;;22.06;40.11;93621.81;5113420;27;20449;-77
2023/09/29 10:17:16;;;;;;;4.35;1.85;;;;;;;22.26;40.35;93620.91;5115322;27;20392;-76
2023/09/29 10:19:45;;;;;;;3.92;1.88;;;;;;;22.24;40.12;93604.69;5121849;27;20058;-77
2023/09/29 10:22:22;;;;;;;6.07;2.30;;;;;;;22.22;39.58;93601.56;5113331;27;20054;-76
2023/09/29 10:24:51;;;;;;;4.28;2.13;;;;;;;22.48;40.74;93610.00;5120803;27;20499;-76
2023/09/29 10:27:31;;;;;;;6.22;2.00;;;;;;;22.80;41.01;93605.31;5112676;27;20047;-76
2023/09/29 10:30:17;;;;;;;7.20;2.20;;;;;;;22.45;40.53;93607.91;5122504;27;20993;-76
2023/09/29 10:32:46;;;;;;;10.77;2.55;;;;;;;22.05;40.90;93607.97;5113619;27;20486;-76
2023/09/29 10:35:19;;;;;;;4.50;1.90;;;;;;;21.74;40.66;93593.25;5107771;27;20055;-77
2023/09/29 10:37:49;;;;;;;6.65;2.15;;;;;;;21.67;41.22;93589.31;5114272;27;20074;-76
2023/09/29 10:40:32;;;;;;;4.80;2.40;;;;;;;21.73;40.92;93596.91;5112062;27;20138;-78
2023/09/29 10:43:02;;;;;;;5.22;2.20;;;;;;;21.55;41.44;93594.88;5108780;27;20058;-77
2023/09/29 10:45:31;;;;;;;7.60;2.47;;;;;;;21.61;41.54;93594.59;5110439;27;20055;-76
2023/09/29 10:48:02;;;;;;;4.88;2.30;;;;;;;21.78;41.94;93590.06;5111266;27;20569;-76
2023/09/29 10:50:29;;;;;;;6.50;2.63;;;;;;;21.95;42.04;93587.09;5111738;27;20047;-76
2023/09/29 10:52:56;;;;;;;7.20;2.00;;;;;;;21.96;41.75;93578.19;5109949;27;20075;-76
2023/09/29 10:55:23;;;;;;;7.40;2.33;;;;;;;22.18;41.55;93585.66;5111575;27;20788;-76
2023/09/29 10:57:52;;;;;;;4.68;2.00;;;;;;;22.26;40.31;93574.59;5111685;27;20047;-76
2023/09/29 11:00:20;;;;;;;7.00;2.60;;;;;;;22.44;39.79;93564.50;5107858;27;20146;-76
2023/09/29 11:02:49;;;;;;;5.25;2.03;;;;;;;22.49;40.12;93577.53;5112307;27;20120;-76
2023/09/29 11:05:16;;;;;;;3.58;1.80;;;;;;;22.68;40.45;93574.28;5116675;27;20676;-75
2023/09/29 11:07:48;;;;;;;6.20;2.65;;;;;;;22.92;40.72;93568.25;5117040;27;20078;-76
2023/09/29 11:10:17;;;;;;;6.20;2.30;;;;;;;22.94;38.87;93574.78;5116058;27;20116;-76
2023/09/29 11:12:46;;;;;;;8.25;2.53;;;;;;;22.66;39.11;93566.69;5112179;27;20043;-75
2023/09/29 11:15:16;;;;;;;5.60;2.33;;;;;;;22.63;38.94;93576.94;5120687;27;20043;-76
2023/09/29 11:17:46;;;;;;;3.95;2.33;;;;;;;22.60;38.98;93567.00;5114272;27;20474;-76
2023/09/29 11:20:25;;;;;;;8.05;2.42;;;;;;;22.76;39.02;93565.00;5110632;28;20043;-76
2023/09/29 11:23:02;;;;;;;4.28;2.25;;;;;;;22.83;39.25;93555.00;5118808;28;20085;-76
2023/09/29 11:25:30;;;;;;;5.65;2.58;;;;;;;23.08;38.71;93556.56;5124397;28;20050;-76
2023/09/29 11:27:56;;;;;;;6.00;2.17;;;;;;;23.25;37.97;93560.56;5113835;28;20087;-76
2023/09/29 11:30:25;;;;;;;5.88;2.45;;;;;;;22.66;37.80;93560.66;5110020;28;20048;-76